Vers la page d'accueil de NAV CANADA Ouverture d'une nouvelle session Chercher sur le site AWWS Clause de non-reponsabilité To the equivalent English page Trucs et astuces FAQ Quoi de neuf sur le site Vers la section Prévisions et observations / NOTAM Vers le site web pour <<Déposer un plan de vol>> Publications et liens importants Mise à jour du profil d'usager Numéros de téléphone des FIC Mes données météo personnelles Données météo de route Données météo régionales Données météo locales Vers la section Prévisions et observations / NOTAM
Requête générée le 2021/09/16 à 16:36:22 UTC. L'information météorologique disponible à ce moment est affichée.

METAR/TAF

Si vous notez des différences entre le METAR/TAF codé et le METAR/TAF en langage clair, veuillez utiliser la version codée. Les bulletins LWIS ne sont pas décodés en langage clair.

MONTREAL INTL (MIRABEL)/QC    

METAR CYMX 161600Z VRB02KT 30SM FEW040 SCT240 21/13 A3028 RMK CF1CI4 CF TR SLP2 DENSITY ALT 600FT=
METAR
LIEU
CYMX - MONTREAL INTL (MIRABEL)/QC
DATE - HEURE
16 SEPTEMBRE 2021 - 1600 UTC
VENT
VRB @ 2  NOEUDS
VISIBILITE
30 MILLES TERR.
PORTEE VISUELLE DE PISTE
METEO
NEBULOSITE
QUELQUES NUAGES (1/8 - 2/8) 4000  PI
NUAGES EPARS (3/8 - 4/8) 24000  PI
TEMP / PT DE ROSEE
21 C / 13 C
ALTIMETRE
30.28 PO HG
TEMPS RECENT
CISAILLEMENT

METAR CYMX 161500Z VRB02KT 30SM SCT240 20/13 A3028 RMK CI4 SLP255 DENSITY ALT 5 FT=
METAR
LIEU
CYMX - MONTREAL INTL (MIRABEL)/QC
DATE - HEURE
16 SEPTEMBRE 2021 - 1500 UTC
VENT
VRB @ 2  NOEUDS
VISIBILITE
30 MILLES TERR.
PORTEE VISUELLE DE PISTE
METEO
NEBULOSITE
NUAGES EPARS (3/8 - 4/8) 24000  PI
TEMP / PT DE ROSEE
20 C / 13 C
ALTIMETRE
30.28 PO HG
TEMPS RECENT
CISAILLEMENT

METAR CYMX 161400Z 00000KT 30SM BKN240 18/13 A3028 RMK CI5 SLP256 DENSITY ALT 3 FT=
METAR
LIEU
CYMX - MONTREAL INTL (MIRABEL)/QC
DATE - HEURE
16 SEPTEMBRE 2021 - 1400 UTC
VENT
CALME
VISIBILITE
30 MILLES TERR.
PORTEE VISUELLE DE PISTE
METEO
NEBULOSITE
NUAGES FRAGMENTES (5/8 - 7/8) 24000  PI
TEMP / PT DE ROSEE
18 C / 13 C
ALTIMETRE
30.28 PO HG
TEMPS RECENT
CISAILLEMENT

TAF CYMX 161138Z 1612/1712 VRB03KT P6SM FEW035 FEW230 PROB30 1707/1712 1/2SM FG SCT002 RMK NXT FCST BY 161800Z=
TAF
LIEU

CYMX - MONTREAL INTL (MIRABEL)/QC
VALIDITE [UTC]
16 SEP - 1138 à
17 SEP - 1200
 
PERIODES
[UTC]
VENT
[DEGRES VRAIS]
VISIBILITE
[MILLES TERR.]
METEO
NEBULOSITE
[PIEDS AGL]
 
16 SEP - 1200 à
17 SEP - 1200
VARIABLE @ 3 NOEUDS
6+
---
3500 QUELQUES
30% PROBABILITE
17 SEP - 0700 à
17 SEP - 1200
 
1/2
BROUILLARD
200 EPARS
REMARQUES
LA PREVISION SUIVANTE SERA EMISE POUR 1800 UTC LE 16


Votre heure Heure UTC
Données météorologiques fournies par Environnement Canada et NAV CANADA